sensor_id;sensor_type;location;lat;lon;timestamp;P1;durP1;ratioP1;P2;durP2;ratioP2
43150;SDS011;28755;51.478;5.702;2022-09-21T00:01:25;10.13;;;4.28;;
43150;SDS011;28755;51.478;5.702;2022-09-21T00:03:56;7.43;;;4.10;;
43150;SDS011;28755;51.478;5.702;2022-09-21T00:06:24;9.73;;;3.92;;
43150;SDS011;28755;51.478;5.702;2022-09-21T00:08:50;13.40;;;4.10;;
43150;SDS011;28755;51.478;5.702;2022-09-21T00:11:17;11.20;;;4.25;;
43150;SDS011;28755;51.478;5.702;2022-09-21T00:13:50;9.55;;;4.03;;
43150;SDS011;28755;51.478;5.702;2022-09-21T00:16:20;10.48;;;4.63;;
43150;SDS011;28755;51.478;5.702;2022-09-21T00:18:46;12.23;;;4.07;;
43150;SDS011;28755;51.478;5.702;2022-09-21T00:21:13;10.80;;;4.15;;
43150;SDS011;28755;51.478;5.702;2022-09-21T00:23:40;14.73;;;4.35;;
43150;SDS011;28755;51.478;5.702;2022-09-21T00:26:07;11.02;;;3.97;;
43150;SDS011;28755;51.478;5.702;2022-09-21T00:28:40;7.57;;;4.15;;
43150;SDS011;28755;51.478;5.702;2022-09-21T00:31:07;10.63;;;5.00;;
43150;SDS011;28755;51.478;5.702;2022-09-21T00:33:36;12.57;;;4.50;;
43150;SDS011;28755;51.478;5.702;2022-09-21T00:36:03;11.45;;;4.32;;
43150;SDS011;28755;51.478;5.702;2022-09-21T00:38:33;7.53;;;4.07;;
43150;SDS011;28755;51.478;5.702;2022-09-21T00:41:00;9.57;;;4.00;;
43150;SDS011;28755;51.478;5.702;2022-09-21T00:43:25;8.70;;;4.18;;
43150;SDS011;28755;51.478;5.702;2022-09-21T00:45:54;9.13;;;4.70;;
43150;SDS011;28755;51.478;5.702;2022-09-21T00:48:30;14.15;;;4.30;;
43150;SDS011;28755;51.478;5.702;2022-09-21T00:50:58;11.73;;;5.00;;
43150;SDS011;28755;51.478;5.702;2022-09-21T00:53:28;7.47;;;4.30;;
43150;SDS011;28755;51.478;5.702;2022-09-21T00:55:54;11.43;;;4.68;;
43150;SDS011;28755;51.478;5.702;2022-09-21T00:58:24;11.60;;;4.85;;
43150;SDS011;28755;51.478;5.702;2022-09-21T01:00:54;12.35;;;5.32;;
43150;SDS011;28755;51.478;5.702;2022-09-21T01:03:22;11.25;;;5.22;;
43150;SDS011;28755;51.478;5.702;2022-09-21T01:05:48;14.07;;;5.75;;
43150;SDS011;28755;51.478;5.702;2022-09-21T01:08:13;8.52;;;5.15;;
43150;SDS011;28755;51.478;5.702;2022-09-21T01:13:40;7.82;;;4.90;;
43150;SDS011;28755;51.478;5.702;2022-09-21T01:16:29;12.80;;;5.25;;
43150;SDS011;28755;51.478;5.702;2022-09-21T01:22:41;10.93;;;5.53;;
43150;SDS011;28755;51.478;5.702;2022-09-21T01:30:33;9.48;;;5.05;;
43150;SDS011;28755;51.478;5.702;2022-09-21T01:33:03;13.02;;;5.40;;
43150;SDS011;28755;51.478;5.702;2022-09-21T01:35:35;11.20;;;5.80;;
43150;SDS011;28755;51.478;5.702;2022-09-21T01:38:06;13.20;;;5.35;;
43150;SDS011;28755;51.478;5.702;2022-09-21T01:40:40;10.88;;;5.50;;
43150;SDS011;28755;51.478;5.702;2022-09-21T01:43:10;7.65;;;5.40;;
43150;SDS011;28755;51.478;5.702;2022-09-21T01:48:07;8.98;;;5.60;;
43150;SDS011;28755;51.478;5.702;2022-09-21T01:50:35;11.93;;;5.65;;
43150;SDS011;28755;51.478;5.702;2022-09-21T01:53:25;10.55;;;5.43;;
43150;SDS011;28755;51.478;5.702;2022-09-21T01:56:12;10.80;;;6.35;;
43150;SDS011;28755;51.478;5.702;2022-09-21T01:58:46;10.40;;;5.45;;
43150;SDS011;28755;51.478;5.702;2022-09-21T02:01:34;8.82;;;5.50;;
43150;SDS011;28755;51.478;5.702;2022-09-21T02:04:07;16.33;;;6.30;;
43150;SDS011;28755;51.478;5.702;2022-09-21T02:06:35;12.38;;;5.95;;
43150;SDS011;28755;51.478;5.702;2022-09-21T02:09:05;13.77;;;6.55;;
43150;SDS011;28755;51.478;5.702;2022-09-21T02:11:33;10.10;;;5.85;;
43150;SDS011;28755;51.478;5.702;2022-09-21T02:14:08;10.88;;;5.78;;
43150;SDS011;28755;51.478;5.702;2022-09-21T02:25:04;11.68;;;6.13;;
43150;SDS011;28755;51.478;5.702;2022-09-21T02:30:24;10.55;;;5.90;;
43150;SDS011;28755;51.478;5.702;2022-09-21T02:35:42;10.25;;;5.55;;
43150;SDS011;28755;51.478;5.702;2022-09-21T02:38:39;11.90;;;5.55;;
43150;SDS011;28755;51.478;5.702;2022-09-21T02:41:26;9.10;;;5.57;;
43150;SDS011;28755;51.478;5.702;2022-09-21T02:44:00;9.40;;;5.70;;
43150;SDS011;28755;51.478;5.702;2022-09-21T02:46:35;11.40;;;5.32;;
43150;SDS011;28755;51.478;5.702;2022-09-21T02:49:24;17.67;;;6.22;;
43150;SDS011;28755;51.478;5.702;2022-09-21T02:51:58;9.18;;;5.93;;
43150;SDS011;28755;51.478;5.702;2022-09-21T02:54:28;17.48;;;5.88;;
43150;SDS011;28755;51.478;5.702;2022-09-21T02:56:56;12.10;;;5.82;;
43150;SDS011;28755;51.478;5.702;2022-09-21T02:59:23;15.00;;;5.85;;
43150;SDS011;28755;51.478;5.702;2022-09-21T03:01:50;13.77;;;6.00;;
43150;SDS011;28755;51.478;5.702;2022-09-21T03:04:16;10.02;;;5.82;;
43150;SDS011;28755;51.478;5.702;2022-09-21T03:06:42;11.30;;;5.53;;
43150;SDS011;28755;51.478;5.702;2022-09-21T03:09:07;10.55;;;5.93;;
43150;SDS011;28755;51.478;5.702;2022-09-21T03:11:33;6.95;;;5.13;;
43150;SDS011;28755;51.478;5.702;2022-09-21T03:14:00;10.48;;;5.80;;
43150;SDS011;28755;51.478;5.702;2022-09-21T03:16:29;14.32;;;6.05;;
43150;SDS011;28755;51.478;5.702;2022-09-21T03:18:55;14.32;;;5.90;;
43150;SDS011;28755;51.478;5.702;2022-09-21T03:21:20;9.15;;;5.07;;
43150;SDS011;28755;51.478;5.702;2022-09-21T03:23:46;13.27;;;5.78;;
43150;SDS011;28755;51.478;5.702;2022-09-21T03:26:11;10.63;;;5.18;;
43150;SDS011;28755;51.478;5.702;2022-09-21T03:28:37;14.43;;;5.70;;
43150;SDS011;28755;51.478;5.702;2022-09-21T03:31:03;9.13;;;5.63;;
43150;SDS011;28755;51.478;5.702;2022-09-21T03:33:30;10.20;;;5.63;;
43150;SDS011;28755;51.478;5.702;2022-09-21T03:35:56;16.90;;;6.25;;
43150;SDS011;28755;51.478;5.702;2022-09-21T03:38:21;8.40;;;5.20;;
43150;SDS011;28755;51.478;5.702;2022-09-21T03:40:48;10.80;;;6.15;;
43150;SDS011;28755;51.478;5.702;2022-09-21T03:43:15;12.27;;;5.85;;
43150;SDS011;28755;51.478;5.702;2022-09-21T03:45:41;10.30;;;6.25;;
43150;SDS011;28755;51.478;5.702;2022-09-21T03:48:08;12.45;;;6.20;;
43150;SDS011;28755;51.478;5.702;2022-09-21T03:50:35;12.00;;;6.63;;
43150;SDS011;28755;51.478;5.702;2022-09-21T03:53:01;13.85;;;6.38;;
43150;SDS011;28755;51.478;5.702;2022-09-21T03:55:27;15.20;;;6.68;;
43150;SDS011;28755;51.478;5.702;2022-09-21T03:57:54;14.27;;;5.75;;
43150;SDS011;28755;51.478;5.702;2022-09-21T04:00:20;10.13;;;6.30;;
43150;SDS011;28755;51.478;5.702;2022-09-21T04:02:46;11.75;;;5.78;;
43150;SDS011;28755;51.478;5.702;2022-09-21T04:05:12;10.13;;;6.55;;
43150;SDS011;28755;51.478;5.702;2022-09-21T04:07:39;12.15;;;6.18;;
43150;SDS011;28755;51.478;5.702;2022-09-21T04:10:06;11.80;;;5.90;;
43150;SDS011;28755;51.478;5.702;2022-09-21T04:12:36;8.70;;;5.60;;
43150;SDS011;28755;51.478;5.702;2022-09-21T04:15:03;14.73;;;6.35;;
43150;SDS011;28755;51.478;5.702;2022-09-21T04:17:31;9.93;;;5.78;;
43150;SDS011;28755;51.478;5.702;2022-09-21T04:19:58;10.38;;;5.88;;
43150;SDS011;28755;51.478;5.702;2022-09-21T04:22:23;11.68;;;5.82;;
43150;SDS011;28755;51.478;5.702;2022-09-21T04:24:49;8.80;;;5.82;;
43150;SDS011;28755;51.478;5.702;2022-09-21T04:27:15;11.88;;;5.70;;
43150;SDS011;28755;51.478;5.702;2022-09-21T04:29:42;10.30;;;6.47;;
43150;SDS011;28755;51.478;5.702;2022-09-21T04:32:08;9.38;;;6.15;;
43150;SDS011;28755;51.478;5.702;2022-09-21T04:34:34;9.10;;;6.10;;
43150;SDS011;28755;51.478;5.702;2022-09-21T04:37:03;10.45;;;6.32;;
43150;SDS011;28755;51.478;5.702;2022-09-21T04:39:37;11.75;;;6.53;;
43150;SDS011;28755;51.478;5.702;2022-09-21T04:42:03;8.75;;;6.10;;
43150;SDS011;28755;51.478;5.702;2022-09-21T04:44:30;10.68;;;6.20;;
43150;SDS011;28755;51.478;5.702;2022-09-21T04:46:58;11.13;;;6.93;;
43150;SDS011;28755;51.478;5.702;2022-09-21T04:49:24;11.18;;;6.68;;
43150;SDS011;28755;51.478;5.702;2022-09-21T04:51:50;12.75;;;6.97;;
43150;SDS011;28755;51.478;5.702;2022-09-21T04:54:18;11.82;;;6.38;;
43150;SDS011;28755;51.478;5.702;2022-09-21T04:56:43;11.50;;;6.25;;
43150;SDS011;28755;51.478;5.702;2022-09-21T04:59:09;8.73;;;6.05;;
43150;SDS011;28755;51.478;5.702;2022-09-21T05:01:34;14.02;;;6.80;;
43150;SDS011;28755;51.478;5.702;2022-09-21T05:04:00;12.43;;;7.20;;
43150;SDS011;28755;51.478;5.702;2022-09-21T05:06:30;10.50;;;6.85;;
43150;SDS011;28755;51.478;5.702;2022-09-21T05:08:57;10.82;;;5.82;;
43150;SDS011;28755;51.478;5.702;2022-09-21T05:11:41;8.05;;;6.35;;
43150;SDS011;28755;51.478;5.702;2022-09-21T05:14:07;10.32;;;6.78;;
43150;SDS011;28755;51.478;5.702;2022-09-21T05:16:33;13.13;;;6.95;;
43150;SDS011;28755;51.478;5.702;2022-09-21T05:18:58;11.85;;;6.32;;
43150;SDS011;28755;51.478;5.702;2022-09-21T05:21:24;12.88;;;7.13;;
43150;SDS011;28755;51.478;5.702;2022-09-21T05:23:50;8.95;;;6.13;;
43150;SDS011;28755;51.478;5.702;2022-09-21T05:26:15;9.55;;;6.63;;
43150;SDS011;28755;51.478;5.702;2022-09-21T05:28:41;10.45;;;6.47;;
43150;SDS011;28755;51.478;5.702;2022-09-21T05:33:53;13.32;;;6.50;;
43150;SDS011;28755;51.478;5.702;2022-09-21T05:36:38;13.60;;;6.57;;
43150;SDS011;28755;51.478;5.702;2022-09-21T05:39:24;12.32;;;6.70;;
43150;SDS011;28755;51.478;5.702;2022-09-21T05:41:50;11.48;;;5.72;;
43150;SDS011;28755;51.478;5.702;2022-09-21T05:44:16;11.57;;;6.15;;
43150;SDS011;28755;51.478;5.702;2022-09-21T05:46:47;7.93;;;5.18;;
43150;SDS011;28755;51.478;5.702;2022-09-21T05:52:22;7.70;;;5.82;;
43150;SDS011;28755;51.478;5.702;2022-09-21T05:58:08;12.90;;;6.65;;
43150;SDS011;28755;51.478;5.702;2022-09-21T06:00:50;13.50;;;6.53;;
43150;SDS011;28755;51.478;5.702;2022-09-21T06:03:30;9.40;;;6.50;;
43150;SDS011;28755;51.478;5.702;2022-09-21T06:05:56;12.95;;;6.78;;
43150;SDS011;28755;51.478;5.702;2022-09-21T06:08:23;14.48;;;7.25;;
43150;SDS011;28755;51.478;5.702;2022-09-21T06:10:49;10.40;;;6.65;;
43150;SDS011;28755;51.478;5.702;2022-09-21T06:13:15;14.45;;;6.65;;
43150;SDS011;28755;51.478;5.702;2022-09-21T06:15:48;12.18;;;7.20;;
43150;SDS011;28755;51.478;5.702;2022-09-21T06:18:14;10.60;;;6.28;;
43150;SDS011;28755;51.478;5.702;2022-09-21T06:20:39;9.63;;;7.00;;
43150;SDS011;28755;51.478;5.702;2022-09-21T06:23:06;13.57;;;6.85;;
43150;SDS011;28755;51.478;5.702;2022-09-21T06:25:33;9.88;;;6.13;;
43150;SDS011;28755;51.478;5.702;2022-09-21T06:28:03;9.77;;;5.70;;
43150;SDS011;28755;51.478;5.702;2022-09-21T06:30:30;10.93;;;7.03;;
43150;SDS011;28755;51.478;5.702;2022-09-21T06:32:59;8.75;;;6.22;;
43150;SDS011;28755;51.478;5.702;2022-09-21T06:35:25;11.02;;;6.30;;
43150;SDS011;28755;51.478;5.702;2022-09-21T06:37:58;13.60;;;6.18;;
43150;SDS011;28755;51.478;5.702;2022-09-21T06:40:25;10.85;;;6.90;;
43150;SDS011;28755;51.478;5.702;2022-09-21T06:42:55;10.43;;;6.43;;
43150;SDS011;28755;51.478;5.702;2022-09-21T06:45:22;13.18;;;6.05;;
43150;SDS011;28755;51.478;5.702;2022-09-21T06:47:48;10.38;;;5.38;;
43150;SDS011;28755;51.478;5.702;2022-09-21T06:50:13;8.13;;;5.85;;
43150;SDS011;28755;51.478;5.702;2022-09-21T06:52:39;10.18;;;5.88;;
43150;SDS011;28755;51.478;5.702;2022-09-21T06:55:06;13.00;;;5.55;;
43150;SDS011;28755;51.478;5.702;2022-09-21T06:57:32;12.82;;;5.25;;
43150;SDS011;28755;51.478;5.702;2022-09-21T06:59:57;12.45;;;5.40;;
43150;SDS011;28755;51.478;5.702;2022-09-21T07:02:23;12.48;;;5.80;;
43150;SDS011;28755;51.478;5.702;2022-09-21T07:04:48;10.73;;;5.90;;
43150;SDS011;28755;51.478;5.702;2022-09-21T07:07:14;13.98;;;6.53;;
43150;SDS011;28755;51.478;5.702;2022-09-21T07:09:40;9.88;;;6.47;;
43150;SDS011;28755;51.478;5.702;2022-09-21T07:12:05;15.18;;;6.95;;
43150;SDS011;28755;51.478;5.702;2022-09-21T07:14:31;11.15;;;5.97;;
43150;SDS011;28755;51.478;5.702;2022-09-21T07:16:57;11.40;;;6.53;;
43150;SDS011;28755;51.478;5.702;2022-09-21T07:19:26;7.53;;;5.85;;
43150;SDS011;28755;51.478;5.702;2022-09-21T07:21:54;14.82;;;7.20;;
43150;SDS011;28755;51.478;5.702;2022-09-21T07:24:20;14.60;;;6.35;;
43150;SDS011;28755;51.478;5.702;2022-09-21T07:26:45;12.35;;;7.03;;
43150;SDS011;28755;51.478;5.702;2022-09-21T07:29:11;18.90;;;7.20;;
43150;SDS011;28755;51.478;5.702;2022-09-21T07:31:36;16.65;;;7.35;;
43150;SDS011;28755;51.478;5.702;2022-09-21T07:34:02;14.73;;;7.85;;
43150;SDS011;28755;51.478;5.702;2022-09-21T07:36:28;10.98;;;7.65;;
43150;SDS011;28755;51.478;5.702;2022-09-21T07:38:53;11.52;;;7.35;;
43150;SDS011;28755;51.478;5.702;2022-09-21T07:41:19;11.32;;;8.15;;
43150;SDS011;28755;51.478;5.702;2022-09-21T07:43:45;13.30;;;8.07;;
43150;SDS011;28755;51.478;5.702;2022-09-21T07:46:11;11.93;;;7.50;;
43150;SDS011;28755;51.478;5.702;2022-09-21T07:48:38;15.75;;;8.20;;
43150;SDS011;28755;51.478;5.702;2022-09-21T07:51:05;11.45;;;8.32;;
43150;SDS011;28755;51.478;5.702;2022-09-21T07:53:36;17.73;;;8.35;;
43150;SDS011;28755;51.478;5.702;2022-09-21T07:56:03;15.38;;;8.50;;
43150;SDS011;28755;51.478;5.702;2022-09-21T07:58:34;18.65;;;9.18;;
43150;SDS011;28755;51.478;5.702;2022-09-21T08:01:19;13.77;;;8.68;;
43150;SDS011;28755;51.478;5.702;2022-09-21T08:03:49;13.23;;;8.23;;
43150;SDS011;28755;51.478;5.702;2022-09-21T08:06:15;17.88;;;8.18;;
43150;SDS011;28755;51.478;5.702;2022-09-21T08:08:41;13.68;;;7.93;;
43150;SDS011;28755;51.478;5.702;2022-09-21T08:11:07;19.33;;;7.95;;
43150;SDS011;28755;51.478;5.702;2022-09-21T08:13:33;17.83;;;8.07;;
43150;SDS011;28755;51.478;5.702;2022-09-21T08:15:59;14.98;;;7.43;;
43150;SDS011;28755;51.478;5.702;2022-09-21T08:18:25;15.77;;;7.30;;
43150;SDS011;28755;51.478;5.702;2022-09-21T08:20:53;12.25;;;6.22;;
43150;SDS011;28755;51.478;5.702;2022-09-21T08:23:19;16.00;;;6.10;;
43150;SDS011;28755;51.478;5.702;2022-09-21T08:25:45;14.32;;;5.72;;
43150;SDS011;28755;51.478;5.702;2022-09-21T08:28:10;11.00;;;5.20;;
43150;SDS011;28755;51.478;5.702;2022-09-21T08:30:36;14.50;;;5.78;;
43150;SDS011;28755;51.478;5.702;2022-09-21T08:33:02;10.18;;;6.20;;
43150;SDS011;28755;51.478;5.702;2022-09-21T08:35:27;8.90;;;4.97;;
43150;SDS011;28755;51.478;5.702;2022-09-21T08:37:53;7.53;;;4.35;;
43150;SDS011;28755;51.478;5.702;2022-09-21T08:40:19;11.75;;;4.88;;
43150;SDS011;28755;51.478;5.702;2022-09-21T08:42:51;7.97;;;4.30;;
43150;SDS011;28755;51.478;5.702;2022-09-21T08:45:25;11.55;;;4.05;;
43150;SDS011;28755;51.478;5.702;2022-09-21T08:48:02;12.77;;;4.70;;
43150;SDS011;28755;51.478;5.702;2022-09-21T08:50:45;7.28;;;2.95;;
43150;SDS011;28755;51.478;5.702;2022-09-21T08:53:18;7.90;;;3.47;;
43150;SDS011;28755;51.478;5.702;2022-09-21T08:56:12;4.97;;;2.17;;
43150;SDS011;28755;51.478;5.702;2022-09-21T08:58:39;8.05;;;2.70;;
43150;SDS011;28755;51.478;5.702;2022-09-21T09:09:39;4.57;;;1.88;;
43150;SDS011;28755;51.478;5.702;2022-09-21T09:12:18;5.53;;;1.98;;
43150;SDS011;28755;51.478;5.702;2022-09-21T09:17:44;4.38;;;1.27;;
43150;SDS011;28755;51.478;5.702;2022-09-21T09:20:32;7.68;;;2.00;;
43150;SDS011;28755;51.478;5.702;2022-09-21T09:23:23;6.63;;;2.00;;
43150;SDS011;28755;51.478;5.702;2022-09-21T09:28:57;5.18;;;1.85;;
43150;SDS011;28755;51.478;5.702;2022-09-21T09:31:44;4.45;;;1.40;;
43150;SDS011;28755;51.478;5.702;2022-09-21T09:34:13;9.43;;;2.30;;
43150;SDS011;28755;51.478;5.702;2022-09-21T09:36:45;6.13;;;1.70;;
43150;SDS011;28755;51.478;5.702;2022-09-21T09:39:18;7.70;;;1.95;;
43150;SDS011;28755;51.478;5.702;2022-09-21T09:47:48;6.35;;;1.73;;
43150;SDS011;28755;51.478;5.702;2022-09-21T09:50:32;4.68;;;1.80;;
43150;SDS011;28755;51.478;5.702;2022-09-21T09:53:12;8.32;;;2.05;;
43150;SDS011;28755;51.478;5.702;2022-09-21T09:58:15;11.05;;;2.42;;
43150;SDS011;28755;51.478;5.702;2022-09-21T10:00:45;6.68;;;2.65;;
43150;SDS011;28755;51.478;5.702;2022-09-21T10:03:17;6.13;;;2.13;;
43150;SDS011;28755;51.478;5.702;2022-09-21T10:08:26;8.38;;;2.25;;
43150;SDS011;28755;51.478;5.702;2022-09-21T10:11:01;9.52;;;2.10;;
43150;SDS011;28755;51.478;5.702;2022-09-21T10:13:42;5.57;;;1.73;;
43150;SDS011;28755;51.478;5.702;2022-09-21T10:16:17;6.80;;;1.70;;
43150;SDS011;28755;51.478;5.702;2022-09-21T10:18:56;8.00;;;1.70;;
43150;SDS011;28755;51.478;5.702;2022-09-21T10:21:34;5.88;;;1.50;;
43150;SDS011;28755;51.478;5.702;2022-09-21T10:24:04;7.18;;;1.88;;
43150;SDS011;28755;51.478;5.702;2022-09-21T10:26:51;11.00;;;1.75;;
43150;SDS011;28755;51.478;5.702;2022-09-21T10:32:31;8.02;;;1.60;;
43150;SDS011;28755;51.478;5.702;2022-09-21T10:34:38;9.38;;;1.60;;
43150;SDS011;28755;51.478;5.702;2022-09-21T10:37:25;11.80;;;1.58;;
43150;SDS011;28755;51.478;5.702;2022-09-21T10:39:52;8.93;;;1.63;;
43150;SDS011;28755;51.478;5.702;2022-09-21T10:42:19;6.43;;;1.40;;
43150;SDS011;28755;51.478;5.702;2022-09-21T10:44:46;8.75;;;1.67;;
43150;SDS011;28755;51.478;5.702;2022-09-21T10:49:59;4.80;;;1.48;;
43150;SDS011;28755;51.478;5.702;2022-09-21T10:52:35;14.43;;;2.03;;
43150;SDS011;28755;51.478;5.702;2022-09-21T10:55:04;11.00;;;2.10;;
43150;SDS011;28755;51.478;5.702;2022-09-21T10:57:32;12.85;;;2.47;;
43150;SDS011;28755;51.478;5.702;2022-09-21T11:05:52;9.10;;;1.90;;
43150;SDS011;28755;51.478;5.702;2022-09-21T11:08:26;6.45;;;1.60;;
43150;SDS011;28755;51.478;5.702;2022-09-21T11:11:06;10.00;;;1.63;;
43150;SDS011;28755;51.478;5.702;2022-09-21T11:13:47;7.53;;;1.20;;
43150;SDS011;28755;51.478;5.702;2022-09-21T11:16:35;7.53;;;1.80;;
43150;SDS011;28755;51.478;5.702;2022-09-21T11:19:27;5.10;;;1.55;;
43150;SDS011;28755;51.478;5.702;2022-09-21T11:22:21;3.08;;;1.10;;
43150;SDS011;28755;51.478;5.702;2022-09-21T11:28:15;3.65;;;1.20;;
43150;SDS011;28755;51.478;5.702;2022-09-21T11:30:54;5.93;;;1.30;;
43150;SDS011;28755;51.478;5.702;2022-09-21T11:33:46;5.90;;;1.10;;
43150;SDS011;28755;51.478;5.702;2022-09-21T11:36:54;5.85;;;1.17;;
43150;SDS011;28755;51.478;5.702;2022-09-21T11:39:49;6.05;;;1.00;;
43150;SDS011;28755;51.478;5.702;2022-09-21T11:45:44;3.28;;;1.13;;
43150;SDS011;28755;51.478;5.702;2022-09-21T11:50:53;3.40;;;1.00;;
43150;SDS011;28755;51.478;5.702;2022-09-21T11:58:50;4.68;;;1.17;;
43150;SDS011;28755;51.478;5.702;2022-09-21T12:12:37;5.15;;;1.08;;
43150;SDS011;28755;51.478;5.702;2022-09-21T12:15:25;5.90;;;1.13;;
43150;SDS011;28755;51.478;5.702;2022-09-21T12:18:11;5.60;;;1.40;;
43150;SDS011;28755;51.478;5.702;2022-09-21T12:23:27;5.78;;;2.00;;
43150;SDS011;28755;51.478;5.702;2022-09-21T12:26:02;5.93;;;2.05;;
43150;SDS011;28755;51.478;5.702;2022-09-21T12:31:08;4.07;;;1.80;;
43150;SDS011;28755;51.478;5.702;2022-09-21T12:36:24;6.28;;;3.13;;
43150;SDS011;28755;51.478;5.702;2022-09-21T12:41:49;10.00;;;3.45;;
43150;SDS011;28755;51.478;5.702;2022-09-21T12:44:24;9.38;;;4.15;;
43150;SDS011;28755;51.478;5.702;2022-09-21T12:47:02;10.85;;;4.68;;
43150;SDS011;28755;51.478;5.702;2022-09-21T12:49:38;10.57;;;5.00;;
43150;SDS011;28755;51.478;5.702;2022-09-21T12:52:07;9.32;;;4.43;;
43150;SDS011;28755;51.478;5.702;2022-09-21T13:00:13;9.30;;;4.40;;
43150;SDS011;28755;51.478;5.702;2022-09-21T13:02:50;8.95;;;4.10;;
43150;SDS011;28755;51.478;5.702;2022-09-21T13:08:00;8.07;;;3.80;;
43150;SDS011;28755;51.478;5.702;2022-09-21T13:10:54;8.30;;;3.50;;
43150;SDS011;28755;51.478;5.702;2022-09-21T13:15:53;7.20;;;4.10;;
43150;SDS011;28755;51.478;5.702;2022-09-21T13:18:27;8.70;;;4.05;;
43150;SDS011;28755;51.478;5.702;2022-09-21T13:20:58;14.27;;;4.05;;
43150;SDS011;28755;51.478;5.702;2022-09-21T13:23:50;6.25;;;3.40;;
43150;SDS011;28755;51.478;5.702;2022-09-21T13:36:43;6.75;;;2.80;;
43150;SDS011;28755;51.478;5.702;2022-09-21T13:41:37;7.95;;;3.03;;
43150;SDS011;28755;51.478;5.702;2022-09-21T13:44:04;6.53;;;2.70;;
43150;SDS011;28755;51.478;5.702;2022-09-21T13:57:02;9.32;;;3.15;;
43150;SDS011;28755;51.478;5.702;2022-09-21T13:59:28;7.28;;;2.83;;
43150;SDS011;28755;51.478;5.702;2022-09-21T14:01:57;6.30;;;2.72;;
43150;SDS011;28755;51.478;5.702;2022-09-21T14:04:27;6.85;;;2.88;;
43150;SDS011;28755;51.478;5.702;2022-09-21T14:06:56;6.07;;;2.53;;
43150;SDS011;28755;51.478;5.702;2022-09-21T14:09:33;9.02;;;2.30;;
43150;SDS011;28755;51.478;5.702;2022-09-21T14:12:07;7.28;;;2.50;;
43150;SDS011;28755;51.478;5.702;2022-09-21T14:14:36;7.13;;;2.92;;
43150;SDS011;28755;51.478;5.702;2022-09-21T14:20:02;6.35;;;2.47;;
43150;SDS011;28755;51.478;5.702;2022-09-21T14:22:32;8.23;;;2.87;;
43150;SDS011;28755;51.478;5.702;2022-09-21T14:28:15;9.90;;;2.70;;
43150;SDS011;28755;51.478;5.702;2022-09-21T14:30:47;12.07;;;2.92;;
43150;SDS011;28755;51.478;5.702;2022-09-21T14:33:19;10.43;;;2.72;;
43150;SDS011;28755;51.478;5.702;2022-09-21T14:35:51;7.40;;;2.30;;
43150;SDS011;28755;51.478;5.702;2022-09-21T14:38:25;9.15;;;2.83;;
43150;SDS011;28755;51.478;5.702;2022-09-21T14:40:59;13.73;;;2.53;;
43150;SDS011;28755;51.478;5.702;2022-09-21T14:43:32;9.25;;;2.60;;
43150;SDS011;28755;51.478;5.702;2022-09-21T14:51:41;7.65;;;2.47;;
43150;SDS011;28755;51.478;5.702;2022-09-21T15:02:38;7.28;;;2.20;;
43150;SDS011;28755;51.478;5.702;2022-09-21T15:07:37;8.25;;;2.38;;
43150;SDS011;28755;51.478;5.702;2022-09-21T15:16:33;11.82;;;2.20;;
43150;SDS011;28755;51.478;5.702;2022-09-21T15:19:15;12.23;;;2.40;;
43150;SDS011;28755;51.478;5.702;2022-09-21T15:21:54;6.38;;;2.05;;
43150;SDS011;28755;51.478;5.702;2022-09-21T15:24:35;7.78;;;2.10;;
43150;SDS011;28755;51.478;5.702;2022-09-21T15:27:03;7.13;;;2.20;;
43150;SDS011;28755;51.478;5.702;2022-09-21T15:29:38;9.05;;;2.30;;
43150;SDS011;28755;51.478;5.702;2022-09-21T15:37:43;9.70;;;2.33;;
43150;SDS011;28755;51.478;5.702;2022-09-21T15:48:23;5.60;;;2.80;;
43150;SDS011;28755;51.478;5.702;2022-09-21T15:50:52;9.88;;;2.80;;
43150;SDS011;28755;51.478;5.702;2022-09-21T15:53:33;5.88;;;2.33;;
43150;SDS011;28755;51.478;5.702;2022-09-21T15:56:04;7.05;;;2.40;;
43150;SDS011;28755;51.478;5.702;2022-09-21T15:58:31;8.68;;;2.65;;
43150;SDS011;28755;51.478;5.702;2022-09-21T16:01:11;6.30;;;2.40;;
43150;SDS011;28755;51.478;5.702;2022-09-21T16:03:39;7.63;;;2.78;;
43150;SDS011;28755;51.478;5.702;2022-09-21T16:06:26;5.82;;;3.00;;
43150;SDS011;28755;51.478;5.702;2022-09-21T16:08:58;9.63;;;2.67;;
43150;SDS011;28755;51.478;5.702;2022-09-21T16:11:53;88.03;;;5.53;;
43150;SDS011;28755;51.478;5.702;2022-09-21T16:14:19;35.30;;;3.38;;
43150;SDS011;28755;51.478;5.702;2022-09-21T16:17:05;5.88;;;2.55;;
43150;SDS011;28755;51.478;5.702;2022-09-21T16:19:40;10.02;;;2.70;;
43150;SDS011;28755;51.478;5.702;2022-09-21T16:22:14;25.67;;;3.00;;
43150;SDS011;28755;51.478;5.702;2022-09-21T16:24:44;7.88;;;2.55;;
43150;SDS011;28755;51.478;5.702;2022-09-21T16:27:15;10.55;;;2.55;;
43150;SDS011;28755;51.478;5.702;2022-09-21T16:29:43;7.00;;;2.40;;
43150;SDS011;28755;51.478;5.702;2022-09-21T16:35:20;9.02;;;2.05;;
43150;SDS011;28755;51.478;5.702;2022-09-21T16:37:51;10.30;;;2.25;;
43150;SDS011;28755;51.478;5.702;2022-09-21T16:40:22;8.23;;;2.00;;
43150;SDS011;28755;51.478;5.702;2022-09-21T16:42:52;6.80;;;2.20;;
43150;SDS011;28755;51.478;5.702;2022-09-21T16:45:22;6.15;;;1.75;;
43150;SDS011;28755;51.478;5.702;2022-09-21T16:47:55;4.97;;;1.85;;
43150;SDS011;28755;51.478;5.702;2022-09-21T16:50:21;8.77;;;2.05;;
43150;SDS011;28755;51.478;5.702;2022-09-21T16:52:48;7.22;;;2.10;;
43150;SDS011;28755;51.478;5.702;2022-09-21T16:55:17;11.65;;;2.50;;
43150;SDS011;28755;51.478;5.702;2022-09-21T16:57:46;5.18;;;2.00;;
43150;SDS011;28755;51.478;5.702;2022-09-21T17:00:13;8.63;;;2.50;;
43150;SDS011;28755;51.478;5.702;2022-09-21T17:02:44;6.15;;;3.28;;
43150;SDS011;28755;51.478;5.702;2022-09-21T17:05:10;9.68;;;3.53;;
43150;SDS011;28755;51.478;5.702;2022-09-21T17:07:47;8.43;;;2.83;;
43150;SDS011;28755;51.478;5.702;2022-09-21T17:10:16;7.38;;;2.65;;
43150;SDS011;28755;51.478;5.702;2022-09-21T17:12:43;8.63;;;3.67;;
43150;SDS011;28755;51.478;5.702;2022-09-21T17:15:10;8.90;;;3.40;;
43150;SDS011;28755;51.478;5.702;2022-09-21T17:17:36;8.85;;;3.00;;
43150;SDS011;28755;51.478;5.702;2022-09-21T17:20:07;8.98;;;2.90;;
43150;SDS011;28755;51.478;5.702;2022-09-21T17:22:41;5.63;;;2.53;;
43150;SDS011;28755;51.478;5.702;2022-09-21T17:25:06;7.57;;;2.53;;
43150;SDS011;28755;51.478;5.702;2022-09-21T17:27:32;9.80;;;3.13;;
43150;SDS011;28755;51.478;5.702;2022-09-21T17:29:58;6.80;;;2.95;;
43150;SDS011;28755;51.478;5.702;2022-09-21T17:32:27;6.50;;;3.15;;
43150;SDS011;28755;51.478;5.702;2022-09-21T17:35:00;8.98;;;3.30;;
43150;SDS011;28755;51.478;5.702;2022-09-21T17:37:35;8.18;;;3.30;;
43150;SDS011;28755;51.478;5.702;2022-09-21T17:40:02;8.98;;;4.20;;
43150;SDS011;28755;51.478;5.702;2022-09-21T17:42:28;11.15;;;3.50;;
43150;SDS011;28755;51.478;5.702;2022-09-21T17:47:44;13.40;;;4.03;;
43150;SDS011;28755;51.478;5.702;2022-09-21T17:50:21;9.50;;;3.92;;
43150;SDS011;28755;51.478;5.702;2022-09-21T17:52:50;9.00;;;5.45;;
43150;SDS011;28755;51.478;5.702;2022-09-21T17:55:35;9.10;;;4.93;;
43150;SDS011;28755;51.478;5.702;2022-09-21T18:01:06;13.95;;;5.85;;
43150;SDS011;28755;51.478;5.702;2022-09-21T18:03:40;10.48;;;5.65;;
43150;SDS011;28755;51.478;5.702;2022-09-21T18:06:08;10.85;;;6.38;;
43150;SDS011;28755;51.478;5.702;2022-09-21T18:08:35;15.10;;;6.40;;
43150;SDS011;28755;51.478;5.702;2022-09-21T18:11:05;12.73;;;6.32;;
43150;SDS011;28755;51.478;5.702;2022-09-21T18:13:53;16.25;;;6.68;;
43150;SDS011;28755;51.478;5.702;2022-09-21T18:16:30;15.88;;;6.85;;
43150;SDS011;28755;51.478;5.702;2022-09-21T18:24:54;10.52;;;6.85;;
43150;SDS011;28755;51.478;5.702;2022-09-21T18:27:21;15.20;;;6.43;;